Accueil
METAR-TAF:

METAR-TAF

Aéroports :

Mysore, Inde

latitude: 12-13-48N, longitude: 76-39-21E, altitude: 715 m

Observation

Le bulletin a été fait il y a 3 heures et 23 minutes, à 12:30 UTC
Vent 14 kt de sud
Température 27°C
Humidité 74%
Pression 1011 hPa
Visibilité 10 km ou plus
Nuages épars à une hauteur de 1500 ft
Nuages épars à une hauteur de 8000 ft

METAR: VOMY 021230Z 18014KT 9999 SCT015 SCT080 27/22 Q1011

Heure: 21:23 (15:53 UTC)

Prévision

Le bulletin a été fait il y a 7 heures et 53 minutes, à 08:00 UTC
Prévision valable du 02 à 09 UTC au 02 à 18 UTC
Vent 10 kt de sud
Visibilité: 6000 m
Nuages épars à une hauteur de 1200 ft
Temporairement
entre 02 et 09 UTC

TAF: VOMY 020800Z 0209/0218 18010KT 6000 SCT012 TEMPO 0209

Observations et prévisions météorologiques de plus de 4000 aéroports (messages METAR et TAF).

Les stations disponibles sont représentées par des disques jaunes et rouges sur la carte.

Passer la souris dessus pour voir le nom de la station.

Cliquer dessus pour voir les observations et prévisions météorologiques.

Pour changer de carte: cliquez sur les boutons verts avec une croix noire pour zoomer, sur le bouton vert avec un tiret pour effectuer un zoom arrière, ou sur les flèches vertes pour les cartes adjacentes.


METAR-TAF: